PKWA

Details ICAO PKWA (KWA)
Name BUCHOLZ AAF
Region Marshall Islands
Timezone Pacific/Kwajalein (UTC+12.0)
Plans Departing 22
Arriving 25
Stats Elevation 9 ft / 3 m (AMSL)
Location 8.720121° 167.731662°
Runways 1
Magnetic Variation 7.620° E
Sunrise 2018-05-21 18:30:32 UTC / 2018-05-22 06:30:32 Local
Sunset 2018-05-22 07:03:43 UTC / 2018-05-22 19:03:43 Local
Advertisement - Login to hide

Runways

ID Width Length Bearing (true) Bearing (mag) Surface Threshold Offset Overrun Length
06 198 ft / 60 m 6,666 ft / 2,032 m 72.67° 65.05° Asphalt 0 ft / 0 m 0 ft / 0 m
24 198 ft / 60 m 6,666 ft / 2,032 m 252.67° 245.05° Asphalt 0 ft / 0 m 0 ft / 0 m

Map

Weather


0- 5 10 15 20 25 30 35+ Temperature / ° C

Clouds and Precipitation
Forecast for 2018-05-21 18:00 UTC. Updated 3 hours ago

Ground ~20,000 ft ~40,000 ft Winds

METAR

PKWA 212000Z AUTO 07016KT 10SM SCT019 SCT026 SCT034 29/25 A2986 RMK AO2 T02860250

TAF

TAF PKWA 211728Z 2118/2218 07018KT P6SM SCT018 SCT035 FM212200 07018KT P6SM VCSH SCT018 SCT030

Frequencies

Tower 126.20 MHz KWAJALEIN TWR
Approach 126.20 MHz KWAJALEIN APP
Warning: Do not use this data for real-world aviation or navigation. No guarantee of current accuracy is given.